Portada
METAR-TAF:

METAR-TAF

Aeropuertos :

Aeropuerto de San Sebastián

San Sebastián, España

latitud: 43-21N, longitud: 001-48W, altitud: 5 m

Observación

El informe se hizo hace 34 minutos, a las 12:00 UTC
Viento 3 kt del noreste
Temperatura 22°C
Humedad 50%
Presión 1018 hPa
Visibilidad 10 km o más
Escasas nubes a una altura de 5000 ft

METAR: LESO 151200Z 04003KT 9999 FEW050 22/11 Q1018

Hora: 13:34 (12:34 UTC)

Pronóstico

El informe se hizo hace 1 hora y 34 minutos, a las 11:00 UTC
Pronóstico válido del 15 a las 12 UTC al 16 a las 12 UTC
Viento 4 kt con dirección variable
Visibilidad 10 km o más
Nubes dispersas a una altura de 5000 ft
Temporalmente
del 15 a las 12 UTC al 15 a las 24 UTC
Viento 10 kt del sur

TAF: LESO 151100Z 1512/1612 VRB04KT 9999 SCT050 TX22/1514Z TN10/1605Z TEMPO 1512/1524 18010KT

Observaciones y pronósticos meteorológicos de más de 4000 aeropuertos (mensajes METAR y TAF).

Los puntos amarillos y rojos representan las estaciones disponibles.

Ponga el ratón en el punto deseado para ver el nombre de la estación.

Haga clic para ver las observaciones y los pronósticos meteorológicos.

Para cambiar el mapa : haga clic en los botones verdes con una cruz de color negro para hacer un zoom, en el botón verde con un guión para alejar o en las flechas verdes para mapas adyacentes.


METAR-TAF: